createdAt,value
2018-09-27T00:01:03.562Z,99.90
2018-09-27T00:03:31.641Z,99.90
2018-09-27T00:06:00.023Z,99.90
2018-09-27T00:08:28.031Z,99.90
2018-09-27T00:10:56.011Z,99.90
2018-09-27T00:13:24.257Z,99.90
2018-09-27T00:15:52.472Z,99.90
2018-09-27T00:18:20.550Z,99.90
2018-09-27T00:20:54.715Z,99.90
2018-09-27T00:23:22.839Z,99.90
2018-09-27T00:25:51.790Z,99.90
2018-09-27T00:28:20.204Z,99.90
2018-09-27T00:30:48.707Z,99.90
2018-09-27T00:33:16.840Z,99.90
2018-09-27T00:35:44.953Z,99.90
2018-09-27T00:38:13.596Z,99.90
2018-09-27T00:40:41.844Z,99.90
2018-09-27T00:43:09.977Z,99.90
2018-09-27T00:45:41.692Z,99.90
2018-09-27T00:48:10.768Z,99.90
2018-09-27T00:50:39.232Z,99.90
2018-09-27T00:53:07.706Z,99.90
2018-09-27T00:55:35.810Z,99.90
2018-09-27T00:58:04.412Z,99.90
2018-09-27T01:00:32.521Z,99.90
2018-09-27T01:03:00.780Z,99.90
2018-09-27T01:05:29.021Z,99.90
2018-09-27T01:07:57.405Z,99.90
2018-09-27T01:10:25.552Z,99.90
2018-09-27T01:12:53.739Z,99.90
2018-09-27T01:15:21.985Z,99.90
2018-09-27T01:17:50.200Z,99.90
2018-09-27T01:20:18.507Z,99.90
2018-09-27T01:22:46.767Z,99.90
2018-09-27T01:25:15.204Z,99.90
2018-09-27T01:27:43.333Z,99.90
2018-09-27T01:30:11.475Z,99.90
2018-09-27T01:32:39.728Z,99.90
2018-09-27T01:35:07.922Z,99.90
2018-09-27T01:37:36.156Z,99.90
2018-09-27T01:40:04.474Z,99.90
2018-09-27T01:42:32.914Z,99.90
2018-09-27T01:45:01.299Z,99.90
2018-09-27T01:47:29.603Z,99.90
2018-09-27T01:49:57.828Z,99.90
2018-09-27T01:52:25.920Z,99.90
2018-09-27T01:54:54.184Z,99.90
2018-09-27T01:57:22.254Z,99.90
2018-09-27T01:59:50.608Z,99.90
2018-09-27T02:02:19.156Z,99.90
2018-09-27T02:04:47.199Z,99.90
2018-09-27T02:07:15.581Z,99.90
2018-09-27T02:09:43.669Z,99.90
2018-09-27T02:12:11.887Z,99.90
2018-09-27T02:14:40.054Z,99.90
2018-09-27T02:17:08.259Z,99.90
2018-09-27T02:19:36.557Z,99.90
2018-09-27T02:22:04.844Z,99.90
2018-09-27T02:24:32.967Z,99.90
2018-09-27T02:27:01.274Z,99.90
2018-09-27T02:29:29.425Z,99.90
2018-09-27T02:31:57.576Z,99.90
2018-09-27T02:34:25.889Z,99.90
2018-09-27T02:36:53.944Z,99.90
2018-09-27T02:39:22.059Z,99.90
2018-09-27T02:41:50.511Z,99.90
2018-09-27T02:44:18.823Z,99.90
2018-09-27T02:46:47.073Z,99.90
2018-09-27T02:49:15.359Z,99.90
2018-09-27T02:51:44.088Z,99.90
2018-09-27T02:54:12.273Z,99.90
2018-09-27T02:56:40.404Z,99.90
2018-09-27T02:59:08.636Z,99.90
2018-09-27T03:01:36.880Z,99.90
2018-09-27T03:04:05.231Z,99.90
2018-09-27T03:06:33.541Z,99.90
2018-09-27T03:09:01.666Z,99.90
2018-09-27T03:11:29.728Z,99.90
2018-09-27T03:13:58.157Z,99.90
2018-09-27T03:16:26.338Z,99.90
2018-09-27T03:18:54.610Z,99.90
2018-09-27T03:21:22.708Z,99.90
2018-09-27T03:23:52.035Z,99.90
2018-09-27T03:26:20.915Z,99.90
2018-09-27T03:28:49.071Z,99.90
2018-09-27T03:31:17.503Z,99.90
2018-09-27T03:33:45.822Z,99.90
2018-09-27T03:36:14.254Z,99.90
2018-09-27T03:38:42.429Z,99.90
2018-09-27T03:41:10.533Z,99.90
2018-09-27T03:43:38.676Z,99.90
2018-09-27T03:46:07.122Z,99.90
2018-09-27T03:48:35.241Z,99.90
2018-09-27T03:51:03.312Z,99.90
2018-09-27T03:53:31.605Z,99.90
2018-09-27T03:56:00.027Z,99.90
2018-09-27T03:58:28.072Z,99.90
2018-09-27T04:00:56.284Z,99.90
2018-09-27T04:03:24.530Z,99.90
2018-09-27T04:05:52.755Z,99.90
2018-09-27T04:08:21.434Z,99.90
2018-09-27T04:10:49.991Z,99.90
2018-09-27T04:13:18.274Z,99.90
2018-09-27T04:15:46.900Z,99.90
2018-09-27T04:18:16.479Z,99.90
2018-09-27T04:20:50.087Z,99.90
2018-09-27T04:23:20.054Z,99.90
2018-09-27T04:25:48.639Z,99.90
2018-09-27T04:28:16.914Z,99.90
2018-09-27T04:30:45.143Z,99.90
2018-09-27T04:33:13.462Z,99.90
2018-09-27T04:35:41.653Z,99.90
2018-09-27T04:38:09.845Z,99.90
2018-09-27T04:40:38.079Z,99.90
2018-09-27T04:43:06.731Z,99.90
2018-09-27T04:45:35.011Z,99.90
2018-09-27T04:48:03.201Z,99.90
2018-09-27T04:50:31.639Z,99.90
2018-09-27T04:52:59.887Z,99.90
2018-09-27T04:55:28.117Z,99.90
2018-09-27T04:57:57.167Z,99.90
2018-09-27T05:00:25.401Z,99.90
2018-09-27T05:02:53.666Z,99.90
2018-09-27T05:05:21.961Z,99.90
2018-09-27T05:07:50.287Z,99.90
2018-09-27T05:10:19.023Z,99.90
2018-09-27T05:12:47.198Z,99.90
2018-09-27T05:15:15.782Z,99.90
2018-09-27T05:17:44.175Z,99.90
2018-09-27T05:20:12.480Z,99.90
2018-09-27T05:22:40.724Z,99.90
2018-09-27T05:25:09.382Z,99.90
2018-09-27T05:27:37.579Z,99.90
2018-09-27T05:30:05.831Z,99.90
2018-09-27T05:32:34.465Z,99.90
2018-09-27T05:35:02.895Z,99.90
2018-09-27T05:37:31.166Z,99.90
2018-09-27T05:39:59.460Z,99.90
2018-09-27T05:42:27.690Z,99.90
2018-09-27T05:44:57.257Z,99.90
2018-09-27T05:47:25.595Z,99.90
2018-09-27T05:49:53.844Z,99.90
2018-09-27T05:52:22.054Z,99.90
2018-09-27T05:54:51.035Z,99.90
2018-09-27T05:57:19.330Z,99.90
2018-09-27T05:59:47.542Z,99.90
2018-09-27T06:02:15.858Z,99.90
2018-09-27T06:04:44.069Z,99.90
2018-09-27T06:07:12.386Z,99.90
2018-09-27T06:09:40.541Z,99.90
2018-09-27T06:12:08.919Z,99.90
2018-09-27T06:14:37.051Z,99.90
2018-09-27T06:17:05.612Z,99.90
2018-09-27T06:19:33.985Z,99.90
2018-09-27T06:22:02.699Z,99.90
2018-09-27T06:24:31.015Z,99.90
2018-09-27T06:26:59.307Z,99.90
2018-09-27T06:29:27.755Z,99.90
2018-09-27T06:31:56.058Z,99.90
2018-09-27T06:34:24.508Z,99.90
2018-09-27T06:36:53.192Z,99.90
2018-09-27T06:39:21.720Z,99.90
2018-09-27T06:41:49.949Z,99.90
2018-09-27T06:44:18.300Z,99.90
2018-09-27T06:46:46.971Z,99.90
2018-09-27T06:49:15.419Z,99.90
2018-09-27T06:51:43.748Z,99.90
2018-09-27T06:54:12.203Z,99.90
2018-09-27T06:56:40.544Z,99.90
2018-09-27T06:59:08.644Z,99.90
2018-09-27T07:01:37.022Z,99.90
2018-09-27T07:04:05.586Z,99.90
2018-09-27T07:06:33.841Z,99.90
2018-09-27T07:09:02.281Z,99.90
2018-09-27T07:11:30.908Z,99.90
2018-09-27T07:13:59.936Z,99.90
2018-09-27T07:16:28.142Z,99.90
2018-09-27T07:18:56.522Z,99.90
2018-09-27T07:21:24.927Z,99.90
2018-09-27T07:23:53.182Z,99.90
2018-09-27T07:26:21.618Z,99.90
2018-09-27T07:28:50.120Z,99.90
2018-09-27T07:31:18.359Z,99.90
2018-09-27T07:33:46.467Z,99.90
2018-09-27T07:36:14.795Z,99.90
2018-09-27T07:38:42.914Z,99.90
2018-09-27T07:41:11.388Z,99.90
2018-09-27T07:43:39.655Z,99.90
2018-09-27T07:46:08.264Z,99.90
2018-09-27T07:48:36.633Z,99.90
2018-09-27T07:51:05.104Z,99.80
2018-09-27T07:53:33.193Z,99.90
2018-09-27T07:56:01.689Z,99.60
2018-09-27T07:58:30.057Z,99.10
2018-09-27T08:00:58.259Z,99.30
2018-09-27T08:03:26.649Z,99.20
2018-09-27T08:05:55.193Z,99.60
2018-09-27T08:08:23.503Z,99.90
2018-09-27T08:10:51.740Z,99.90
2018-09-27T08:13:19.960Z,99.90
2018-09-27T08:15:48.167Z,99.90
2018-09-27T08:18:16.350Z,98.70
2018-09-27T08:20:44.676Z,97.30
2018-09-27T08:23:12.791Z,95.40
2018-09-27T08:25:41.022Z,93.10
2018-09-27T08:28:09.258Z,93.00
2018-09-27T08:30:37.523Z,93.60
2018-09-27T08:33:05.979Z,92.00
2018-09-27T08:35:34.235Z,90.70
2018-09-27T08:38:02.656Z,88.90
2018-09-27T08:40:30.978Z,88.90
2018-09-27T08:42:59.576Z,90.50
2018-09-27T08:45:28.159Z,91.30
2018-09-27T08:47:56.411Z,91.70
2018-09-27T08:50:24.479Z,88.30
2018-09-27T08:52:52.822Z,86.70
2018-09-27T08:55:20.930Z,82.20
2018-09-27T08:57:49.270Z,80.20
2018-09-27T09:00:17.456Z,81.10
2018-09-27T09:02:45.526Z,83.60
2018-09-27T09:05:13.784Z,82.30
2018-09-27T09:07:42.242Z,79.60
2018-09-27T09:10:10.627Z,79.50
2018-09-27T09:12:38.817Z,78.80
2018-09-27T09:15:07.343Z,80.20
2018-09-27T09:17:35.700Z,81.20
2018-09-27T09:20:04.927Z,81.40
2018-09-27T09:22:33.197Z,80.30
2018-09-27T09:25:01.692Z,81.10
2018-09-27T09:27:30.716Z,81.40
2018-09-27T09:29:59.184Z,78.80
2018-09-27T09:32:27.601Z,77.40
2018-09-27T09:34:55.754Z,75.20
2018-09-27T09:37:23.847Z,72.70
2018-09-27T09:39:51.987Z,72.50
2018-09-27T09:42:20.347Z,69.20
2018-09-27T09:44:48.923Z,68.20
2018-09-27T09:47:17.304Z,68.20
2018-09-27T09:49:45.675Z,68.80
2018-09-27T09:52:14.107Z,66.50
2018-09-27T09:54:42.429Z,68.80
2018-09-27T09:57:10.684Z,68.20
2018-09-27T09:59:39.082Z,63.80
2018-09-27T10:02:07.422Z,59.90
2018-09-27T10:04:35.537Z,58.90
2018-09-27T10:07:04.401Z,56.30
2018-09-27T10:09:32.688Z,59.00
2018-09-27T10:12:00.859Z,58.90
2018-09-27T10:14:29.106Z,57.50
2018-09-27T10:16:57.235Z,56.90
2018-09-27T10:19:25.440Z,56.40
2018-09-27T10:21:53.591Z,56.00
2018-09-27T10:24:22.135Z,55.00
2018-09-27T10:26:50.347Z,55.10
2018-09-27T10:29:18.641Z,57.30
2018-09-27T10:31:47.060Z,59.70
2018-09-27T10:34:15.492Z,58.00
2018-09-27T10:36:43.763Z,57.70
2018-09-27T10:39:13.079Z,56.70
2018-09-27T10:41:42.134Z,56.10
2018-09-27T10:44:10.695Z,55.80
2018-09-27T10:46:38.795Z,54.00
2018-09-27T10:49:06.991Z,54.70
2018-09-27T10:51:35.242Z,53.50
2018-09-27T10:54:03.897Z,52.10
2018-09-27T10:56:32.334Z,50.90
2018-09-27T10:59:00.632Z,51.80
2018-09-27T11:01:29.006Z,53.80
2018-09-27T11:03:57.445Z,54.70
2018-09-27T11:06:26.021Z,55.70
2018-09-27T11:08:54.334Z,57.60
2018-09-27T11:11:22.974Z,61.00
2018-09-27T11:13:51.357Z,65.10
2018-09-27T11:16:19.602Z,64.80
2018-09-27T11:18:48.024Z,67.10
2018-09-27T11:21:16.259Z,71.10
2018-09-27T11:23:44.410Z,70.90
2018-09-27T11:26:12.624Z,72.00
2018-09-27T11:28:46.954Z,75.20
2018-09-27T11:31:21.064Z,74.30
2018-09-27T11:33:49.389Z,76.40
2018-09-27T11:36:17.701Z,76.40
2018-09-27T11:38:45.881Z,74.80
2018-09-27T11:41:14.375Z,76.60
2018-09-27T11:43:42.631Z,77.10
2018-09-27T11:46:10.815Z,79.40
2018-09-27T11:48:38.919Z,77.20
2018-09-27T11:51:07.035Z,79.30
2018-09-27T11:53:35.253Z,80.40
2018-09-27T11:56:03.331Z,80.70
2018-09-27T11:58:31.929Z,78.50
2018-09-27T12:01:00.852Z,79.30
2018-09-27T12:03:30.147Z,78.20
2018-09-27T12:05:58.740Z,78.40
2018-09-27T12:08:26.909Z,79.10
2018-09-27T12:10:55.212Z,80.20
2018-09-27T12:13:23.786Z,79.60
2018-09-27T12:15:51.966Z,79.10
2018-09-27T12:18:20.170Z,77.40
2018-09-27T12:20:48.621Z,79.00
2018-09-27T12:23:16.865Z,80.30
2018-09-27T12:25:45.168Z,78.90
2018-09-27T12:28:13.265Z,78.40
2018-09-27T12:30:41.667Z,79.00
2018-09-27T12:33:10.090Z,79.40
2018-09-27T12:35:38.342Z,78.10
2018-09-27T12:38:06.515Z,80.00
2018-09-27T12:40:34.632Z,78.10
2018-09-27T12:43:02.893Z,79.30
2018-09-27T12:45:31.558Z,80.20
2018-09-27T12:47:59.862Z,80.20
2018-09-27T12:50:28.118Z,77.70
2018-09-27T12:52:56.512Z,78.30
2018-09-27T12:55:24.713Z,79.70
2018-09-27T12:57:53.571Z,77.00
2018-09-27T13:00:21.883Z,76.90
2018-09-27T13:02:50.105Z,77.00
2018-09-27T13:05:18.236Z,75.40
2018-09-27T13:07:46.367Z,77.50
2018-09-27T13:10:14.527Z,77.00
2018-09-27T13:12:43.966Z,73.80
2018-09-27T13:15:12.489Z,74.90
2018-09-27T13:17:40.735Z,74.50
2018-09-27T13:20:09.792Z,73.50
2018-09-27T13:22:38.475Z,77.30
2018-09-27T13:25:07.535Z,77.80
2018-09-27T13:27:36.507Z,76.40
2018-09-27T13:30:05.924Z,72.80
2018-09-27T13:32:34.767Z,74.50
2018-09-27T13:35:03.039Z,73.90
2018-09-27T13:37:31.441Z,74.20
2018-09-27T13:39:59.896Z,73.80
2018-09-27T13:42:28.633Z,75.60
2018-09-27T13:44:56.809Z,76.30
2018-09-27T13:47:25.187Z,74.60
2018-09-27T13:49:57.444Z,73.50
2018-09-27T13:52:25.641Z,73.70
2018-09-27T13:54:54.006Z,73.00
2018-09-27T13:57:23.353Z,74.60
2018-09-27T13:59:51.531Z,75.30
2018-09-27T14:02:19.850Z,75.40
2018-09-27T14:04:48.132Z,76.40
2018-09-27T14:07:16.597Z,76.10
2018-09-27T14:09:44.862Z,74.20
2018-09-27T14:12:13.017Z,73.70
2018-09-27T14:14:41.366Z,74.70
2018-09-27T14:17:09.760Z,73.10
2018-09-27T14:19:38.046Z,75.40
2018-09-27T14:22:06.378Z,71.40
2018-09-27T14:24:34.884Z,72.30
2018-09-27T14:27:03.194Z,74.70
2018-09-27T14:29:31.495Z,72.00
2018-09-27T14:32:00.379Z,73.50
2018-09-27T14:34:28.712Z,72.40
2018-09-27T14:36:57.371Z,71.20
2018-09-27T14:39:25.719Z,71.40
2018-09-27T14:41:54.167Z,69.20
2018-09-27T14:44:22.646Z,71.00
2018-09-27T14:46:50.807Z,70.50
2018-09-27T14:49:25.073Z,69.90
2018-09-27T14:51:53.691Z,69.70
2018-09-27T14:54:22.159Z,67.60
2018-09-27T14:56:51.006Z,68.90
2018-09-27T14:59:19.425Z,69.40
2018-09-27T15:01:47.667Z,69.50
2018-09-27T15:04:15.755Z,66.10
2018-09-27T15:06:44.008Z,66.20
2018-09-27T15:09:12.807Z,66.40
2018-09-27T15:11:41.104Z,66.60
2018-09-27T15:14:09.345Z,65.60
2018-09-27T15:16:37.509Z,66.40
2018-09-27T15:19:05.684Z,65.70
2018-09-27T15:21:34.027Z,66.10
2018-09-27T15:24:02.124Z,67.00
2018-09-27T15:26:30.546Z,66.10
2018-09-27T15:28:58.744Z,67.70
2018-09-27T15:31:26.876Z,66.70
2018-09-27T15:33:55.047Z,65.10
2018-09-27T15:36:23.277Z,66.00
2018-09-27T15:38:51.457Z,64.50
2018-09-27T15:41:19.599Z,66.40
2018-09-27T15:43:48.119Z,65.80
2018-09-27T15:46:16.690Z,64.90
2018-09-27T15:48:45.416Z,64.10
2018-09-27T15:51:13.924Z,65.60
2018-09-27T15:53:42.210Z,67.00
2018-09-27T15:56:10.445Z,66.30
2018-09-27T15:58:38.698Z,67.00
2018-09-27T16:01:06.915Z,67.70
2018-09-27T16:03:35.483Z,67.80
2018-09-27T16:06:04.008Z,68.10
2018-09-27T16:08:32.345Z,66.50
2018-09-27T16:11:00.886Z,67.60
2018-09-27T16:13:29.815Z,67.50
2018-09-27T16:15:58.163Z,67.50
2018-09-27T16:18:26.539Z,69.30
2018-09-27T16:20:54.779Z,72.50
2018-09-27T16:23:23.109Z,68.30
2018-09-27T16:25:51.403Z,70.70
2018-09-27T16:28:19.675Z,69.40
2018-09-27T16:30:47.943Z,68.00
2018-09-27T16:33:16.267Z,70.10
2018-09-27T16:35:44.631Z,77.00
2018-09-27T16:38:13.187Z,77.80
2018-09-27T16:40:41.315Z,79.60
2018-09-27T16:43:09.479Z,79.80
2018-09-27T16:45:37.763Z,81.80
2018-09-27T16:48:06.455Z,83.60
2018-09-27T16:50:34.643Z,84.60
2018-09-27T16:53:02.792Z,86.10
2018-09-27T16:55:31.191Z,87.90
2018-09-27T16:57:59.597Z,89.80
2018-09-27T17:00:27.800Z,90.90
2018-09-27T17:02:56.157Z,92.40
2018-09-27T17:05:24.636Z,93.20
2018-09-27T17:07:52.825Z,94.30
2018-09-27T17:10:21.234Z,94.40
2018-09-27T17:12:49.465Z,94.50
2018-09-27T17:15:17.662Z,95.00
2018-09-27T17:17:45.959Z,96.10
2018-09-27T17:20:14.486Z,96.80
2018-09-27T17:22:42.980Z,97.60
2018-09-27T17:25:11.464Z,97.80
2018-09-27T17:27:40.034Z,99.30
2018-09-27T17:30:08.364Z,99.30
2018-09-27T17:32:36.696Z,99.20
2018-09-27T17:35:04.939Z,99.90
2018-09-27T17:37:33.220Z,99.90
2018-09-27T17:40:01.460Z,99.90
2018-09-27T17:42:29.917Z,99.90
2018-09-27T17:44:58.549Z,99.90
2018-09-27T17:47:26.668Z,99.90
2018-09-27T17:49:54.833Z,99.90
2018-09-27T17:52:23.147Z,99.90
2018-09-27T17:54:51.419Z,99.90
2018-09-27T17:57:20.422Z,99.90
2018-09-27T17:59:49.925Z,99.90
2018-09-27T18:02:18.089Z,99.90
2018-09-27T18:04:46.569Z,99.90
2018-09-27T18:07:14.937Z,99.90
2018-09-27T18:09:43.590Z,99.90
2018-09-27T18:12:11.993Z,99.90
2018-09-27T18:14:40.211Z,99.90
2018-09-27T18:17:09.127Z,99.90
2018-09-27T18:19:37.283Z,99.90
2018-09-27T18:22:05.292Z,99.90
2018-09-27T18:24:33.302Z,99.90
2018-09-27T18:27:01.374Z,99.90
2018-09-27T18:29:29.516Z,99.90
2018-09-27T18:31:57.714Z,99.90
2018-09-27T18:34:26.916Z,99.90
2018-09-27T18:36:55.111Z,99.90
2018-09-27T18:39:23.298Z,99.90
2018-09-27T18:41:51.492Z,99.90
2018-09-27T18:44:19.790Z,99.90
2018-09-27T18:46:48.158Z,99.90
2018-09-27T18:49:16.953Z,99.90
2018-09-27T18:51:45.114Z,99.90
2018-09-27T18:54:14.565Z,99.90
2018-09-27T18:56:43.033Z,99.90
2018-09-27T18:59:11.794Z,99.90
2018-09-27T19:01:39.874Z,99.90
2018-09-27T19:04:08.091Z,99.90
2018-09-27T19:06:36.297Z,99.90
2018-09-27T19:09:06.108Z,99.90
2018-09-27T19:11:34.283Z,99.90
2018-09-27T19:14:02.744Z,99.90
2018-09-27T19:16:30.954Z,99.90
2018-09-27T19:18:59.383Z,99.90
2018-09-27T19:21:28.192Z,99.90
2018-09-27T19:23:56.704Z,99.90
2018-09-27T19:26:25.011Z,99.90
2018-09-27T19:28:53.328Z,99.90
2018-09-27T19:31:21.655Z,99.90
2018-09-27T19:33:49.983Z,99.90
2018-09-27T19:36:18.315Z,99.90
2018-09-27T19:38:46.848Z,99.90
2018-09-27T19:41:15.271Z,99.90
2018-09-27T19:43:43.536Z,99.90
2018-09-27T19:46:11.900Z,99.90
2018-09-27T19:48:40.089Z,99.90
2018-09-27T19:51:08.402Z,99.90
2018-09-27T19:53:36.644Z,99.90
2018-09-27T19:56:04.991Z,99.90
2018-09-27T19:58:33.345Z,99.90
2018-09-27T20:01:01.706Z,99.90
2018-09-27T20:03:30.277Z,99.90
2018-09-27T20:05:58.518Z,99.90
2018-09-27T20:08:27.786Z,99.90
2018-09-27T20:10:56.545Z,99.90
2018-09-27T20:13:25.202Z,99.90
2018-09-27T20:15:53.624Z,99.90
2018-09-27T20:18:22.403Z,99.90
2018-09-27T20:20:50.874Z,99.90
2018-09-27T20:23:19.487Z,99.90
2018-09-27T20:25:47.654Z,99.90
2018-09-27T20:28:16.123Z,99.90
2018-09-27T20:30:44.507Z,99.90
2018-09-27T20:33:12.762Z,99.90
2018-09-27T20:35:41.115Z,99.90
2018-09-27T20:38:09.352Z,99.90
2018-09-27T20:40:37.936Z,99.90
2018-09-27T20:43:06.141Z,99.90
2018-09-27T20:45:34.680Z,99.90
2018-09-27T20:48:02.832Z,99.90
2018-09-27T20:50:30.992Z,99.90
2018-09-27T20:53:03.166Z,99.90
2018-09-27T20:55:31.335Z,99.90
2018-09-27T20:57:59.952Z,99.90
2018-09-27T21:00:28.268Z,99.90
2018-09-27T21:02:56.524Z,99.90
2018-09-27T21:05:24.728Z,99.90
2018-09-27T21:07:52.969Z,99.90
2018-09-27T21:10:21.441Z,99.90
2018-09-27T21:12:49.557Z,99.90
2018-09-27T21:15:18.129Z,99.90
2018-09-27T21:17:47.074Z,99.90
2018-09-27T21:20:15.243Z,99.90
2018-09-27T21:22:43.485Z,99.90
2018-09-27T21:25:11.958Z,99.90
2018-09-27T21:27:40.083Z,99.90
2018-09-27T21:30:08.334Z,99.90
2018-09-27T21:32:36.723Z,99.90
2018-09-27T21:35:05.462Z,99.90
2018-09-27T21:37:33.876Z,99.90
2018-09-27T21:40:02.049Z,99.90
2018-09-27T21:42:30.246Z,99.90
2018-09-27T21:44:58.535Z,99.90
2018-09-27T21:47:27.119Z,99.90
2018-09-27T21:49:55.417Z,99.90
2018-09-27T21:52:23.764Z,99.90
2018-09-27T21:54:52.167Z,99.90
2018-09-27T21:57:20.372Z,99.90
2018-09-27T21:59:48.796Z,99.90
2018-09-27T22:02:17.245Z,99.90
2018-09-27T22:04:45.542Z,99.90
2018-09-27T22:07:13.847Z,99.90
2018-09-27T22:09:42.327Z,99.90
2018-09-27T22:12:11.672Z,99.90
2018-09-27T22:14:40.012Z,99.90
2018-09-27T22:17:08.289Z,99.90
2018-09-27T22:19:36.728Z,99.90
2018-09-27T22:22:04.960Z,99.90
2018-09-27T22:24:33.286Z,99.90
2018-09-27T22:27:01.662Z,99.90
2018-09-27T22:29:30.076Z,99.90
2018-09-27T22:31:58.464Z,99.90
2018-09-27T22:34:26.961Z,99.90
2018-09-27T22:36:55.426Z,99.90
2018-09-27T22:39:23.755Z,99.90
2018-09-27T22:41:52.074Z,99.90
2018-09-27T22:44:20.310Z,99.90
2018-09-27T22:46:48.628Z,99.90
2018-09-27T22:49:17.336Z,99.90
2018-09-27T22:51:45.553Z,99.90
2018-09-27T22:54:13.907Z,99.90
2018-09-27T22:56:42.304Z,99.90
2018-09-27T22:59:10.933Z,99.90
2018-09-27T23:01:39.239Z,99.90
2018-09-27T23:04:07.517Z,99.90
2018-09-27T23:06:35.730Z,99.90
2018-09-27T23:09:06.046Z,99.90
2018-09-27T23:11:34.329Z,99.90
2018-09-27T23:14:04.305Z,99.90
2018-09-27T23:16:32.776Z,99.90
2018-09-27T23:19:01.361Z,99.90
2018-09-27T23:21:29.686Z,99.90
2018-09-27T23:23:59.202Z,99.90
2018-09-27T23:26:27.723Z,99.90
2018-09-27T23:28:56.328Z,99.90
2018-09-27T23:31:25.453Z,99.90
2018-09-27T23:33:53.917Z,99.90
2018-09-27T23:36:24.236Z,99.90
2018-09-27T23:38:54.248Z,99.90
2018-09-27T23:41:22.602Z,99.90
2018-09-27T23:43:51.231Z,99.90
2018-09-27T23:46:20.866Z,99.90
2018-09-27T23:48:50.267Z,99.90
2018-09-27T23:51:19.291Z,99.90
2018-09-27T23:53:47.675Z,99.90
2018-09-27T23:56:16.392Z,99.90
2018-09-27T23:58:44.775Z,99.90
